Time,TemperatureF,DewpointF,PressureIn,WindDirection,WindDirectionDegrees,WindSpeedMPH,WindSpeedGustMPH,Humidity,HourlyPrecipIn,Conditions,Clouds,dailyrainin,SoftwareType,DateUTC
2013-05-25 00:01:00,70.0,45.0,29.79,NW,311,7.0,16.0,41,0.00,,,-99.99,,2013-05-25 07:01:00,
2013-05-25 00:11:00,70.0,45.0,29.79,NW,311,7.0,16.0,41,0.00,,,-99.99,,2013-05-25 07:11:00,
2013-05-25 00:21:00,70.0,46.0,29.79,WSW,246,7.0,15.0,42,0.00,,,-99.99,,2013-05-25 07:21:00,
2013-05-25 00:31:00,70.0,45.0,29.79,WSW,240,7.0,18.0,41,0.00,,,-99.99,,2013-05-25 07:31:00,
2013-05-25 00:41:00,70.0,45.0,29.79,WSW,240,7.0,18.0,41,0.00,,,-99.99,,2013-05-25 07:41:00,
2013-05-25 00:52:00,69.0,46.0,29.79,WNW,295,8.0,18.0,43,0.00,,,-99.99,,2013-05-25 07:52:00,
2013-05-25 01:01:00,69.0,45.0,29.79,WNW,287,6.0,17.0,42,0.00,,,-99.99,,2013-05-25 08:01:00,
2013-05-25 01:11:00,69.0,45.0,29.79,WNW,287,6.0,17.0,42,0.00,,,-99.99,,2013-05-25 08:11:00,
2013-05-25 01:22:00,69.0,45.0,29.79,WNW,287,8.0,16.0,42,0.00,,,-99.99,,2013-05-25 08:22:00,
2013-05-25 01:31:00,68.0,45.0,29.78,ENE,61,7.0,20.0,43,0.00,,,-99.99,,2013-05-25 08:31:00,
2013-05-25 01:41:00,68.0,46.0,29.78,West,273,9.0,17.0,45,0.00,,,-99.99,,2013-05-25 08:41:00,
2013-05-25 01:52:00,68.0,46.0,29.78,West,273,9.0,17.0,45,0.00,,,-99.99,,2013-05-25 08:52:00,
2013-05-25 02:01:00,68.0,45.0,29.78,NNW,331,10.0,19.0,44,0.00,,,-99.99,,2013-05-25 09:01:00,
2013-05-25 02:11:00,68.0,45.0,29.78,NNW,331,10.0,19.0,44,0.00,,,-99.99,,2013-05-25 09:11:00,
2013-05-25 02:21:00,67.0,44.0,29.78,WNW,298,9.0,26.0,44,0.00,,,-99.99,,2013-05-25 09:21:00,
2013-05-25 02:33:00,67.0,44.0,29.78,NW,305,10.0,21.0,43,0.00,,,-99.99,,2013-05-25 09:33:00,
2013-05-25 02:42:00,67.0,44.0,29.78,NW,305,10.0,21.0,43,0.00,,,-99.99,,2013-05-25 09:42:00,
2013-05-25 02:52:00,67.0,44.0,29.78,NW,304,9.0,18.0,43,0.00,,,-99.99,,2013-05-25 09:52:00,
2013-05-25 03:02:00,67.0,44.0,29.78,South,188,10.0,23.0,43,0.00,,,-99.99,,2013-05-25 10:02:00,
2013-05-25 03:12:00,67.0,44.0,29.78,South,188,10.0,23.0,43,0.00,,,-99.99,,2013-05-25 10:12:00,
2013-05-25 03:22:00,67.0,43.0,29.78,West,276,8.0,17.0,41,0.00,,,-99.99,,2013-05-25 10:22:00,
2013-05-25 03:32:00,68.0,41.0,29.79,WNW,296,4.0,16.0,38,0.00,,,-99.99,,2013-05-25 10:32:00,
2013-05-25 03:42:00,68.0,41.0,29.79,WNW,296,4.0,16.0,38,0.00,,,-99.99,,2013-05-25 10:42:00,
2013-05-25 03:52:00,67.0,41.0,29.79,NNW,333,6.0,16.0,38,0.00,,,-99.99,,2013-05-25 10:52:00,
2013-05-25 04:02:00,68.0,39.0,29.79,SW,232,7.0,16.0,35,0.00,,,-99.99,,2013-05-25 11:02:00,
2013-05-25 04:11:00,68.0,39.0,29.79,SW,232,7.0,16.0,35,0.00,,,-99.99,,2013-05-25 11:11:00,
2013-05-25 04:21:00,68.0,39.0,29.79,NNW,330,6.0,12.0,35,0.00,,,-99.99,,2013-05-25 11:21:00,
2013-05-25 04:32:00,67.0,41.0,29.79,West,271,6.0,18.0,39,0.00,,,-99.99,,2013-05-25 11:32:00,
2013-05-25 04:41:00,67.0,41.0,29.79,West,271,6.0,18.0,39,0.00,,,-99.99,,2013-05-25 11:41:00,
2013-05-25 04:52:00,67.0,40.0,29.79,West,278,7.0,15.0,37,0.00,,,-99.99,,2013-05-25 11:52:00,
2013-05-25 05:01:00,67.0,39.0,29.80,WNW,303,6.0,19.0,36,0.00,,,-99.99,,2013-05-25 12:01:00,
2013-05-25 05:12:00,67.0,39.0,29.80,WNW,303,6.0,19.0,36,0.00,,,-99.99,,2013-05-25 12:12:00,
2013-05-25 05:21:00,66.0,40.0,29.80,West,269,5.0,12.0,38,0.00,,,-99.99,,2013-05-25 12:21:00,
2013-05-25 05:32:00,66.0,38.0,29.80,WSW,257,7.0,17.0,36,0.00,,,-99.99,,2013-05-25 12:32:00,
2013-05-25 05:42:00,66.0,38.0,29.80,WSW,257,7.0,17.0,36,0.00,,,-99.99,,2013-05-25 12:42:00,
2013-05-25 05:52:00,66.0,40.0,29.81,West,276,4.0,10.0,38,0.00,,,-99.99,,2013-05-25 12:52:00,
2013-05-25 06:01:00,66.0,41.0,29.81,WNW,298,7.0,13.0,40,0.00,,,-99.99,,2013-05-25 13:01:00,
2013-05-25 06:11:00,66.0,41.0,29.81,WNW,298,7.0,13.0,40,0.00,,,-99.99,,2013-05-25 13:11:00,
2013-05-25 06:21:00,65.0,41.0,29.81,WNW,300,8.0,18.0,42,0.00,,,-99.99,,2013-05-25 13:21:00,
2013-05-25 06:32:00,65.0,43.0,29.82,NW,322,7.0,14.0,45,0.00,,,-99.99,,2013-05-25 13:32:00,
2013-05-25 06:42:00,65.0,43.0,29.82,NW,322,7.0,14.0,45,0.00,,,-99.99,,2013-05-25 13:42:00,
2013-05-25 06:52:00,66.0,43.0,29.83,NW,311,8.0,17.0,44,0.00,,,-99.99,,2013-05-25 13:52:00,
2013-05-25 07:01:00,66.0,43.0,29.82,WNW,291,6.0,18.0,44,0.00,,,-99.99,,2013-05-25 14:01:00,
2013-05-25 07:11:00,66.0,43.0,29.82,WNW,291,6.0,18.0,44,0.00,,,-99.99,,2013-05-25 14:11:00,
2013-05-25 07:22:00,67.0,44.0,29.83,North,5,9.0,20.0,44,0.00,,,-99.99,,2013-05-25 14:22:00,
2013-05-25 07:32:00,67.0,44.0,29.84,WSW,249,5.0,20.0,43,0.00,,,-99.99,,2013-05-25 14:32:00,
2013-05-25 07:41:00,67.0,44.0,29.84,WSW,249,5.0,20.0,43,0.00,,,-99.99,,2013-05-25 14:41:00,
2013-05-25 07:52:00,68.0,45.0,29.84,NW,319,6.0,16.0,43,0.00,,,-99.99,,2013-05-25 14:52:00,
2013-05-25 08:01:00,69.0,42.0,29.85,SW,232,6.0,15.0,38,0.00,,,-99.99,,2013-05-25 15:01:00,
2013-05-25 08:11:00,69.0,42.0,29.85,SW,232,6.0,15.0,38,0.00,,,-99.99,,2013-05-25 15:11:00,
2013-05-25 08:22:00,71.0,40.0,29.84,NNW,328,5.0,17.0,33,0.00,,,-99.99,,2013-05-25 15:22:00,
2013-05-25 08:32:00,72.0,41.0,29.85,WSW,255,5.0,12.0,33,0.00,,,-99.99,,2013-05-25 15:32:00,
2013-05-25 08:43:00,72.0,41.0,29.85,WSW,255,5.0,12.0,33,0.00,,,-99.99,,2013-05-25 15:43:00,
2013-05-25 08:53:00,73.0,41.0,29.85,NW,304,6.0,12.0,32,0.00,,,-99.99,,2013-05-25 15:53:00,
2013-05-25 09:02:00,74.0,41.0,29.86,WNW,301,4.0,14.0,31,0.00,,,-99.99,,2013-05-25 16:02:00,
2013-05-25 09:12:00,74.0,41.0,29.86,WNW,301,4.0,14.0,31,0.00,,,-99.99,,2013-05-25 16:12:00,
2013-05-25 09:22:00,75.0,41.0,29.85,WNW,282,6.0,15.0,29,0.00,,,-99.99,,2013-05-25 16:22:00,
2013-05-25 09:32:00,76.0,40.0,29.85,WSW,257,6.0,13.0,27,0.00,,,-99.99,,2013-05-25 16:32:00,
2013-05-25 09:42:00,76.0,40.0,29.85,WSW,257,6.0,13.0,27,0.00,,,-99.99,,2013-05-25 16:42:00,
2013-05-25 09:52:00,77.0,39.0,29.85,NW,307,5.0,11.0,26,0.00,,,-99.99,,2013-05-25 16:52:00,
2013-05-25 10:02:00,78.0,37.0,29.86,West,260,5.0,12.0,23,0.00,,,-99.99,,2013-05-25 17:02:00,
2013-05-25 10:11:00,78.0,37.0,29.86,West,260,5.0,12.0,23,0.00,,,-99.99,,2013-05-25 17:11:00,
2013-05-25 10:22:00,79.0,38.0,29.85,NNW,335,6.0,12.0,23,0.00,,,-99.99,,2013-05-25 17:22:00,
2013-05-25 10:32:00,80.0,35.0,29.85,WNW,290,6.0,14.0,20,0.00,,,-99.99,,2013-05-25 17:32:00,
2013-05-25 10:41:00,80.0,35.0,29.85,WNW,290,6.0,14.0,20,0.00,,,-99.99,,2013-05-25 17:41:00,
2013-05-25 10:52:00,81.0,36.0,29.86,NNW,335,4.0,11.0,20,0.00,,,-99.99,,2013-05-25 17:52:00,
2013-05-25 11:01:00,82.0,36.0,29.86,WNW,296,6.0,11.0,19,0.00,,,-99.99,,2013-05-25 18:01:00,
2013-05-25 11:11:00,82.0,36.0,29.86,WNW,296,6.0,11.0,19,0.00,,,-99.99,,2013-05-25 18:11:00,
2013-05-25 11:21:00,82.0,34.0,29.86,West,273,5.0,12.0,18,0.00,,,-99.99,,2013-05-25 18:21:00,
2013-05-25 11:31:00,83.0,35.0,29.87,West,280,3.0,11.0,18,0.00,,,-99.99,,2013-05-25 18:31:00,
2013-05-25 11:41:00,83.0,35.0,29.87,West,280,3.0,11.0,18,0.00,,,-99.99,,2013-05-25 18:41:00,
2013-05-25 11:52:00,84.0,34.0,29.87,WNW,295,4.0,10.0,17,0.00,,,-99.99,,2013-05-25 18:52:00,
2013-05-25 12:01:00,85.0,34.0,29.86,WSW,246,2.0,11.0,16,0.00,,,-99.99,,2013-05-25 19:01:00,
2013-05-25 12:11:00,85.0,34.0,29.86,WSW,246,2.0,11.0,16,0.00,,,-99.99,,2013-05-25 19:11:00,
2013-05-25 12:21:00,85.0,32.0,29.86,NNE,21,3.0,7.0,15,0.00,,,-99.99,,2013-05-25 19:21:00,
2013-05-25 12:31:00,86.0,35.0,29.85,West,278,4.0,9.0,16,0.00,,,-99.99,,2013-05-25 19:31:00,
2013-05-25 12:41:00,86.0,35.0,29.85,West,278,4.0,9.0,16,0.00,,,-99.99,,2013-05-25 19:41:00,
2013-05-25 12:52:00,87.0,34.0,29.85,NE,46,4.0,10.0,15,0.00,,,-99.99,,2013-05-25 19:52:00,
2013-05-25 13:02:00,87.0,34.0,29.85,West,264,6.0,13.0,15,0.00,,,-99.99,,2013-05-25 20:02:00,
2013-05-25 13:11:00,87.0,34.0,29.85,West,264,6.0,13.0,15,0.00,,,-99.99,,2013-05-25 20:11:00,
2013-05-25 13:21:00,88.0,33.0,29.84,South,186,3.0,11.0,14,0.00,,,-99.99,,2013-05-25 20:21:00,
2013-05-25 13:32:00,88.0,31.0,29.85,North,10,3.0,10.0,13,0.00,,,-99.99,,2013-05-25 20:32:00,
2013-05-25 13:41:00,88.0,31.0,29.85,North,10,3.0,10.0,13,0.00,,,-99.99,,2013-05-25 20:41:00,
2013-05-25 13:52:00,88.0,35.0,29.84,NNW,339,4.0,14.0,15,0.00,,,-99.99,,2013-05-25 20:52:00,
2013-05-25 14:01:00,88.0,35.0,29.84,NW,326,5.0,13.0,15,0.00,,,-99.99,,2013-05-25 21:01:00,
2013-05-25 14:11:00,88.0,35.0,29.84,NW,326,5.0,13.0,15,0.00,,,-99.99,,2013-05-25 21:11:00,
2013-05-25 14:21:00,88.0,36.0,29.83,NW,307,4.0,19.0,16,0.00,,,-99.99,,2013-05-25 21:21:00,
2013-05-25 14:32:00,88.0,36.0,29.83,NW,326,5.0,12.0,16,0.00,,,-99.99,,2013-05-25 21:32:00,
2013-05-25 14:42:00,88.0,36.0,29.83,NW,326,5.0,12.0,16,0.00,,,-99.99,,2013-05-25 21:42:00,
2013-05-25 14:53:00,89.0,35.0,29.82,WNW,288,4.0,14.0,15,0.00,,,-99.99,,2013-05-25 21:53:00,
2013-05-25 15:02:00,89.0,34.0,29.82,NW,308,5.0,14.0,14,0.00,,,-99.99,,2013-05-25 22:02:00,
2013-05-25 15:12:00,89.0,34.0,29.82,NW,308,5.0,14.0,14,0.00,,,-99.99,,2013-05-25 22:12:00,
2013-05-25 15:22:00,89.0,34.0,29.81,WNW,303,4.0,15.0,14,0.00,,,-99.99,,2013-05-25 22:22:00,
2013-05-25 15:32:00,90.0,31.0,29.81,WNW,298,8.0,16.0,12,0.00,,,-99.99,,2013-05-25 22:32:00,
2013-05-25 15:42:00,90.0,31.0,29.81,WNW,298,8.0,16.0,12,0.00,,,-99.99,,2013-05-25 22:42:00,
2013-05-25 15:52:00,90.0,31.0,29.80,WNW,290,6.0,15.0,12,0.00,,,-99.99,,2013-05-25 22:52:00,
2013-05-25 16:02:00,90.0,28.0,29.80,North,9,6.0,16.0,11,0.00,,,-99.99,,2013-05-25 23:02:00,
2013-05-25 16:11:00,90.0,28.0,29.80,North,9,6.0,16.0,11,0.00,,,-99.99,,2013-05-25 23:11:00,
2013-05-25 16:21:00,90.0,26.0,29.79,SSW,211,4.0,13.0,10,0.00,,,-99.99,,2013-05-25 23:21:00,
2013-05-25 16:31:00,90.0,26.0,29.79,WSW,246,4.0,13.0,10,0.00,,,-99.99,,2013-05-25 23:31:00,
2013-05-25 16:42:00,90.0,24.0,29.78,East,82,4.0,12.0,9,0.00,,,-99.99,,2013-05-25 23:42:00,
2013-05-25 16:52:00,90.0,24.0,29.78,East,82,4.0,12.0,9,0.00,,,-99.99,,2013-05-25 23:52:00,
2013-05-25 17:01:00,90.0,26.0,29.79,NW,307,5.0,13.0,10,0.00,,,-99.99,,2013-05-26 00:01:00,
2013-05-25 17:11:00,90.0,26.0,29.79,NW,307,5.0,13.0,10,0.00,,,-99.99,,2013-05-26 00:11:00,
2013-05-25 17:21:00,90.0,31.0,29.78,ENE,77,6.0,12.0,12,0.00,,,-99.99,,2013-05-26 00:21:00,
2013-05-25 17:31:00,89.0,28.0,29.78,West,276,4.0,17.0,11,0.00,,,-99.99,,2013-05-26 00:31:00,
2013-05-25 17:42:00,89.0,28.0,29.78,West,276,4.0,17.0,11,0.00,,,-99.99,,2013-05-26 00:42:00,
2013-05-25 17:52:00,89.0,35.0,29.77,North,351,4.0,12.0,15,0.00,,,-99.99,,2013-05-26 00:52:00,
2013-05-25 18:01:00,88.0,36.0,29.77,West,271,3.0,13.0,16,0.00,,,-99.99,,2013-05-26 01:01:00,
2013-05-25 18:21:00,88.0,39.0,29.77,WNW,287,6.0,15.0,18,0.00,,,-99.99,,2013-05-26 01:21:00,
2013-05-25 18:32:00,88.0,38.0,29.77,West,259,3.0,12.0,17,0.00,,,-99.99,,2013-05-26 01:32:00,
2013-05-25 18:41:00,88.0,38.0,29.77,West,259,3.0,12.0,17,0.00,,,-99.99,,2013-05-26 01:41:00,
2013-05-25 18:52:00,86.0,38.0,29.77,North,6,5.0,13.0,18,0.00,,,-99.99,,2013-05-26 01:52:00,
2013-05-25 19:02:00,86.0,40.0,29.77,WNW,294,5.0,10.0,20,0.00,,,-99.99,,2013-05-26 02:02:00,
2013-05-25 19:11:00,86.0,40.0,29.77,WNW,294,5.0,10.0,20,0.00,,,-99.99,,2013-05-26 02:11:00,
2013-05-25 19:21:00,85.0,39.0,29.77,WNW,301,4.0,10.0,20,0.00,,,-99.99,,2013-05-26 02:21:00,
2013-05-25 19:32:00,84.0,39.0,29.77,West,265,4.0,13.0,20,0.00,,,-99.99,,2013-05-26 02:32:00,
2013-05-25 19:41:00,84.0,39.0,29.77,West,265,4.0,13.0,20,0.00,,,-99.99,,2013-05-26 02:41:00,
2013-05-25 19:52:00,83.0,41.0,29.77,WNW,294,4.0,13.0,23,0.00,,,-99.99,,2013-05-26 02:52:00,
2013-05-25 20:01:00,81.0,41.0,29.78,NNE,19,5.0,13.0,24,0.00,,,-99.99,,2013-05-26 03:01:00,
2013-05-25 20:11:00,81.0,41.0,29.78,NNE,19,5.0,13.0,24,0.00,,,-99.99,,2013-05-26 03:11:00,
2013-05-25 20:21:00,80.0,42.0,29.78,West,264,4.0,17.0,26,0.00,,,-99.99,,2013-05-26 03:21:00,
2013-05-25 20:32:00,79.0,43.0,29.78,NW,314,7.0,13.0,28,0.00,,,-99.99,,2013-05-26 03:32:00,
2013-05-25 20:42:00,79.0,43.0,29.78,NW,314,7.0,13.0,28,0.00,,,-99.99,,2013-05-26 03:42:00,
2013-05-25 20:53:00,79.0,43.0,29.78,WSW,257,6.0,18.0,28,0.00,,,-99.99,,2013-05-26 03:53:00,
2013-05-25 21:02:00,78.0,44.0,29.78,ENE,58,6.0,16.0,30,0.00,,,-99.99,,2013-05-26 04:02:00,
2013-05-25 21:12:00,77.0,45.0,29.78,WNW,297,6.0,14.0,32,0.00,,,-99.99,,2013-05-26 04:12:00,
2013-05-25 21:23:00,77.0,45.0,29.78,WNW,297,6.0,14.0,32,0.00,,,-99.99,,2013-05-26 04:23:00,
2013-05-25 21:32:00,76.0,45.0,29.79,NNW,347,5.0,17.0,33,0.00,,,-99.99,,2013-05-26 04:32:00,
2013-05-25 21:42:00,76.0,45.0,29.79,NNW,347,5.0,17.0,33,0.00,,,-99.99,,2013-05-26 04:42:00,
2013-05-25 21:52:00,75.0,45.0,29.80,WNW,298,7.0,18.0,34,0.00,,,-99.99,,2013-05-26 04:52:00,
2013-05-25 22:02:00,74.0,45.0,29.80,NW,311,8.0,18.0,35,0.00,,,-99.99,,2013-05-26 05:02:00,
2013-05-25 22:12:00,74.0,45.0,29.80,NW,311,8.0,18.0,35,0.00,,,-99.99,,2013-05-26 05:12:00,
2013-05-25 22:21:00,74.0,45.0,29.80,SW,225,8.0,24.0,36,0.00,,,-99.99,,2013-05-26 05:21:00,
2013-05-25 22:31:00,74.0,46.0,29.80,West,278,6.0,19.0,37,0.00,,,-99.99,,2013-05-26 05:31:00,
2013-05-25 22:42:00,74.0,46.0,29.80,West,278,6.0,19.0,37,0.00,,,-99.99,,2013-05-26 05:42:00,
2013-05-25 22:52:00,73.0,47.0,29.80,NW,314,5.0,14.0,39,0.00,,,-99.99,,2013-05-26 05:52:00,
2013-05-25 23:01:00,72.0,46.0,29.80,WNW,290,6.0,14.0,40,0.00,,,-99.99,,2013-05-26 06:01:00,
2013-05-25 23:11:00,72.0,46.0,29.80,WNW,290,6.0,14.0,40,0.00,,,-99.99,,2013-05-26 06:11:00,
2013-05-25 23:21:00,72.0,48.0,29.80,North,5,7.0,15.0,42,0.00,,,-99.99,,2013-05-26 06:21:00,
2013-05-25 23:31:00,71.0,47.0,29.80,NW,304,6.0,18.0,42,0.00,,,-99.99,,2013-05-26 06:31:00,
2013-05-25 23:41:00,71.0,47.0,29.80,NW,304,6.0,18.0,42,0.00,,,-99.99,,2013-05-26 06:41:00,
2013-05-25 23:52:00,71.0,48.0,29.80,WNW,297,8.0,22.0,44,0.00,,,-99.99,,2013-05-26 06:52:00,